sensor_id;sensor_type;location;lat;lon;timestamp;temperature;humidity
10155;DHT22;5118;48.570;7.916;2023-07-31T00:01:45;15.40;99.90
10155;DHT22;5118;48.570;7.916;2023-07-31T00:04:13;15.40;99.90
10155;DHT22;5118;48.570;7.916;2023-07-31T00:06:42;15.40;99.90
10155;DHT22;5118;48.570;7.916;2023-07-31T00:09:10;15.40;99.90
10155;DHT22;5118;48.570;7.916;2023-07-31T00:11:38;15.40;99.90
10155;DHT22;5118;48.570;7.916;2023-07-31T00:14:06;15.30;99.90
10155;DHT22;5118;48.570;7.916;2023-07-31T00:16:36;15.30;99.90
10155;DHT22;5118;48.570;7.916;2023-07-31T00:19:05;15.20;99.90
10155;DHT22;5118;48.570;7.916;2023-07-31T00:21:33;15.10;99.90
10155;DHT22;5118;48.570;7.916;2023-07-31T00:24:01;15.00;99.90
10155;DHT22;5118;48.570;7.916;2023-07-31T00:26:29;14.90;99.90
10155;DHT22;5118;48.570;7.916;2023-07-31T00:28:58;14.90;99.90
10155;DHT22;5118;48.570;7.916;2023-07-31T00:31:26;14.90;99.90
10155;DHT22;5118;48.570;7.916;2023-07-31T00:33:56;14.80;99.90
10155;DHT22;5118;48.570;7.916;2023-07-31T00:36:25;14.80;99.90
10155;DHT22;5118;48.570;7.916;2023-07-31T00:38:53;14.90;99.90
10155;DHT22;5118;48.570;7.916;2023-07-31T00:41:21;15.00;99.90
10155;DHT22;5118;48.570;7.916;2023-07-31T00:43:49;15.10;99.90
10155;DHT22;5118;48.570;7.916;2023-07-31T00:46:18;15.20;99.90
10155;DHT22;5118;48.570;7.916;2023-07-31T00:48:46;15.30;99.90
10155;DHT22;5118;48.570;7.916;2023-07-31T00:51:16;15.30;99.90
10155;DHT22;5118;48.570;7.916;2023-07-31T00:53:45;15.20;99.90
10155;DHT22;5118;48.570;7.916;2023-07-31T00:56:15;15.10;99.90
10155;DHT22;5118;48.570;7.916;2023-07-31T00:58:44;15.10;99.90
10155;DHT22;5118;48.570;7.916;2023-07-31T01:01:12;15.00;99.90
10155;DHT22;5118;48.570;7.916;2023-07-31T01:03:41;15.00;99.90
10155;DHT22;5118;48.570;7.916;2023-07-31T01:06:17;14.90;99.90
10155;DHT22;5118;48.570;7.916;2023-07-31T01:08:58;14.80;99.90
10155;DHT22;5118;48.570;7.916;2023-07-31T01:11:31;14.80;99.90
10155;DHT22;5118;48.570;7.916;2023-07-31T01:14:01;14.80;99.90
10155;DHT22;5118;48.570;7.916;2023-07-31T01:16:30;14.70;99.90
10155;DHT22;5118;48.570;7.916;2023-07-31T01:18:58;14.60;99.90
10155;DHT22;5118;48.570;7.916;2023-07-31T01:21:54;14.60;99.90
10155;DHT22;5118;48.570;7.916;2023-07-31T01:24:30;14.60;99.90
10155;DHT22;5118;48.570;7.916;2023-07-31T01:27:06;14.50;99.90
10155;DHT22;5118;48.570;7.916;2023-07-31T01:29:40;14.50;99.90
10155;DHT22;5118;48.570;7.916;2023-07-31T01:32:10;14.50;99.90
10155;DHT22;5118;48.570;7.916;2023-07-31T01:34:40;14.60;99.90
10155;DHT22;5118;48.570;7.916;2023-07-31T01:37:09;14.60;99.90
10155;DHT22;5118;48.570;7.916;2023-07-31T01:39:37;14.60;99.90
10155;DHT22;5118;48.570;7.916;2023-07-31T01:42:07;14.70;99.90
10155;DHT22;5118;48.570;7.916;2023-07-31T01:44:35;14.70;99.90
10155;DHT22;5118;48.570;7.916;2023-07-31T01:47:05;14.80;99.90
10155;DHT22;5118;48.570;7.916;2023-07-31T01:49:33;14.80;99.90
10155;DHT22;5118;48.570;7.916;2023-07-31T01:52:02;14.80;99.90
10155;DHT22;5118;48.570;7.916;2023-07-31T01:54:30;14.80;99.90
10155;DHT22;5118;48.570;7.916;2023-07-31T01:56:59;14.70;99.90
10155;DHT22;5118;48.570;7.916;2023-07-31T01:59:30;14.70;99.90
10155;DHT22;5118;48.570;7.916;2023-07-31T02:01:58;14.70;99.90
10155;DHT22;5118;48.570;7.916;2023-07-31T02:04:26;14.70;99.90
10155;DHT22;5118;48.570;7.916;2023-07-31T02:06:55;14.70;99.90
10155;DHT22;5118;48.570;7.916;2023-07-31T02:09:23;14.60;99.90
10155;DHT22;5118;48.570;7.916;2023-07-31T02:11:52;14.60;99.90
10155;DHT22;5118;48.570;7.916;2023-07-31T02:14:20;14.50;99.90
10155;DHT22;5118;48.570;7.916;2023-07-31T02:16:50;14.60;99.90
10155;DHT22;5118;48.570;7.916;2023-07-31T02:19:18;14.60;99.90
10155;DHT22;5118;48.570;7.916;2023-07-31T02:21:46;14.50;99.90
10155;DHT22;5118;48.570;7.916;2023-07-31T02:24:18;14.60;99.90
10155;DHT22;5118;48.570;7.916;2023-07-31T02:26:46;14.60;99.90
10155;DHT22;5118;48.570;7.916;2023-07-31T02:29:14;14.60;99.90
10155;DHT22;5118;48.570;7.916;2023-07-31T02:31:44;14.70;99.90
10155;DHT22;5118;48.570;7.916;2023-07-31T02:34:14;14.70;99.90
10155;DHT22;5118;48.570;7.916;2023-07-31T02:36:42;14.70;99.90
10155;DHT22;5118;48.570;7.916;2023-07-31T02:39:10;14.80;99.90
10155;DHT22;5118;48.570;7.916;2023-07-31T02:41:39;14.80;99.90
10155;DHT22;5118;48.570;7.916;2023-07-31T02:44:07;14.80;99.90
10155;DHT22;5118;48.570;7.916;2023-07-31T02:46:36;14.90;99.90
10155;DHT22;5118;48.570;7.916;2023-07-31T02:49:05;14.90;99.90
10155;DHT22;5118;48.570;7.916;2023-07-31T02:51:34;15.00;99.90
10155;DHT22;5118;48.570;7.916;2023-07-31T02:54:03;15.00;99.90
10155;DHT22;5118;48.570;7.916;2023-07-31T02:56:31;15.00;99.90
10155;DHT22;5118;48.570;7.916;2023-07-31T02:58:59;15.10;99.90
10155;DHT22;5118;48.570;7.916;2023-07-31T03:01:28;15.10;99.90
10155;DHT22;5118;48.570;7.916;2023-07-31T03:03:56;15.10;99.90
10155;DHT22;5118;48.570;7.916;2023-07-31T03:06:25;15.10;99.90
10155;DHT22;5118;48.570;7.916;2023-07-31T03:08:55;15.10;99.90
10155;DHT22;5118;48.570;7.916;2023-07-31T03:11:24;15.00;99.90
10155;DHT22;5118;48.570;7.916;2023-07-31T03:13:52;15.00;99.90
10155;DHT22;5118;48.570;7.916;2023-07-31T03:16:21;15.00;99.90
10155;DHT22;5118;48.570;7.916;2023-07-31T03:18:49;15.00;99.90
10155;DHT22;5118;48.570;7.916;2023-07-31T03:21:17;15.00;99.90
10155;DHT22;5118;48.570;7.916;2023-07-31T03:23:46;15.00;99.90
10155;DHT22;5118;48.570;7.916;2023-07-31T03:26:15;14.90;99.90
10155;DHT22;5118;48.570;7.916;2023-07-31T03:28:43;14.90;99.90
10155;DHT22;5118;48.570;7.916;2023-07-31T03:31:12;14.90;99.90
10155;DHT22;5118;48.570;7.916;2023-07-31T03:33:40;14.90;99.90
10155;DHT22;5118;48.570;7.916;2023-07-31T03:36:08;14.90;99.90
10155;DHT22;5118;48.570;7.916;2023-07-31T03:38:37;14.90;99.90
10155;DHT22;5118;48.570;7.916;2023-07-31T03:41:07;15.00;99.90
10155;DHT22;5118;48.570;7.916;2023-07-31T03:43:37;15.00;99.90
10155;DHT22;5118;48.570;7.916;2023-07-31T03:46:06;15.00;99.90
10155;DHT22;5118;48.570;7.916;2023-07-31T03:48:34;15.00;99.90
10155;DHT22;5118;48.570;7.916;2023-07-31T03:51:03;15.10;99.90
10155;DHT22;5118;48.570;7.916;2023-07-31T03:53:31;15.10;99.90
10155;DHT22;5118;48.570;7.916;2023-07-31T03:55:59;15.20;99.90
10155;DHT22;5118;48.570;7.916;2023-07-31T03:58:28;15.20;99.90
10155;DHT22;5118;48.570;7.916;2023-07-31T04:00:57;15.30;99.90
10155;DHT22;5118;48.570;7.916;2023-07-31T04:03:25;15.30;99.90
10155;DHT22;5118;48.570;7.916;2023-07-31T04:05:54;15.40;99.90
10155;DHT22;5118;48.570;7.916;2023-07-31T04:08:23;15.40;99.90
10155;DHT22;5118;48.570;7.916;2023-07-31T04:10:52;15.40;99.90
10155;DHT22;5118;48.570;7.916;2023-07-31T04:13:21;15.40;99.90
10155;DHT22;5118;48.570;7.916;2023-07-31T04:15:49;15.50;99.90
10155;DHT22;5118;48.570;7.916;2023-07-31T04:18:20;15.50;99.90
10155;DHT22;5118;48.570;7.916;2023-07-31T04:20:48;15.50;99.90
10155;DHT22;5118;48.570;7.916;2023-07-31T04:23:16;15.50;99.90
10155;DHT22;5118;48.570;7.916;2023-07-31T04:25:45;15.60;99.90
10155;DHT22;5118;48.570;7.916;2023-07-31T04:28:13;15.50;99.90
10155;DHT22;5118;48.570;7.916;2023-07-31T04:30:42;15.50;99.90
10155;DHT22;5118;48.570;7.916;2023-07-31T04:33:10;15.60;99.90
10155;DHT22;5118;48.570;7.916;2023-07-31T04:35:40;15.60;99.90
10155;DHT22;5118;48.570;7.916;2023-07-31T04:38:08;15.60;99.90
10155;DHT22;5118;48.570;7.916;2023-07-31T04:40:36;15.60;99.90
10155;DHT22;5118;48.570;7.916;2023-07-31T04:43:04;15.60;99.90
10155;DHT22;5118;48.570;7.916;2023-07-31T04:45:33;15.70;99.90
10155;DHT22;5118;48.570;7.916;2023-07-31T04:48:01;15.70;99.90
10155;DHT22;5118;48.570;7.916;2023-07-31T04:50:29;15.70;99.90
10155;DHT22;5118;48.570;7.916;2023-07-31T04:52:59;15.70;99.90
10155;DHT22;5118;48.570;7.916;2023-07-31T04:55:27;15.80;99.90
10155;DHT22;5118;48.570;7.916;2023-07-31T04:57:57;15.80;99.90
10155;DHT22;5118;48.570;7.916;2023-07-31T05:00:25;15.80;99.90
10155;DHT22;5118;48.570;7.916;2023-07-31T05:02:54;15.80;99.90
10155;DHT22;5118;48.570;7.916;2023-07-31T05:05:22;15.80;99.90
10155;DHT22;5118;48.570;7.916;2023-07-31T05:07:50;15.90;99.90
10155;DHT22;5118;48.570;7.916;2023-07-31T05:10:20;15.90;99.90
10155;DHT22;5118;48.570;7.916;2023-07-31T05:12:49;16.00;99.90
10155;DHT22;5118;48.570;7.916;2023-07-31T05:15:17;16.00;99.90
10155;DHT22;5118;48.570;7.916;2023-07-31T05:17:45;16.10;99.90
10155;DHT22;5118;48.570;7.916;2023-07-31T05:20:14;16.20;99.90
10155;DHT22;5118;48.570;7.916;2023-07-31T05:22:42;16.20;99.90
10155;DHT22;5118;48.570;7.916;2023-07-31T05:25:11;16.30;99.90
10155;DHT22;5118;48.570;7.916;2023-07-31T05:27:41;16.40;99.90
10155;DHT22;5118;48.570;7.916;2023-07-31T05:30:09;16.50;99.90
10155;DHT22;5118;48.570;7.916;2023-07-31T05:32:38;16.50;99.90
10155;DHT22;5118;48.570;7.916;2023-07-31T05:35:06;16.60;99.90
10155;DHT22;5118;48.570;7.916;2023-07-31T05:37:36;16.70;99.90
10155;DHT22;5118;48.570;7.916;2023-07-31T05:40:05;16.70;99.90
10155;DHT22;5118;48.570;7.916;2023-07-31T05:42:34;16.80;99.90
10155;DHT22;5118;48.570;7.916;2023-07-31T05:45:07;16.90;99.90
10155;DHT22;5118;48.570;7.916;2023-07-31T05:47:35;16.90;99.90
10155;DHT22;5118;48.570;7.916;2023-07-31T05:50:04;17.00;99.90
10155;DHT22;5118;48.570;7.916;2023-07-31T05:52:33;17.10;99.90
10155;DHT22;5118;48.570;7.916;2023-07-31T05:55:01;17.20;99.90
10155;DHT22;5118;48.570;7.916;2023-07-31T05:57:30;17.20;99.90
10155;DHT22;5118;48.570;7.916;2023-07-31T05:59:58;17.30;99.90
10155;DHT22;5118;48.570;7.916;2023-07-31T06:02:28;17.40;99.90
10155;DHT22;5118;48.570;7.916;2023-07-31T06:05:00;17.40;99.90
10155;DHT22;5118;48.570;7.916;2023-07-31T06:07:28;17.40;99.90
10155;DHT22;5118;48.570;7.916;2023-07-31T06:09:57;17.50;99.90
10155;DHT22;5118;48.570;7.916;2023-07-31T06:12:30;17.50;99.90
10155;DHT22;5118;48.570;7.916;2023-07-31T06:14:58;17.50;99.90
10155;DHT22;5118;48.570;7.916;2023-07-31T06:17:28;17.60;99.90
10155;DHT22;5118;48.570;7.916;2023-07-31T06:19:57;17.60;99.90
10155;DHT22;5118;48.570;7.916;2023-07-31T06:22:25;17.70;99.90
10155;DHT22;5118;48.570;7.916;2023-07-31T06:24:53;17.70;99.90
10155;DHT22;5118;48.570;7.916;2023-07-31T06:27:22;17.80;99.90
10155;DHT22;5118;48.570;7.916;2023-07-31T06:29:50;17.80;99.90
10155;DHT22;5118;48.570;7.916;2023-07-31T06:32:18;17.90;99.90
10155;DHT22;5118;48.570;7.916;2023-07-31T06:34:48;17.90;99.90
10155;DHT22;5118;48.570;7.916;2023-07-31T06:37:17;18.00;99.90
10155;DHT22;5118;48.570;7.916;2023-07-31T06:39:45;18.10;99.90
10155;DHT22;5118;48.570;7.916;2023-07-31T06:42:13;18.10;99.90
10155;DHT22;5118;48.570;7.916;2023-07-31T06:44:42;18.20;99.90
10155;DHT22;5118;48.570;7.916;2023-07-31T06:47:10;18.30;99.90
10155;DHT22;5118;48.570;7.916;2023-07-31T06:49:39;18.40;99.90
10155;DHT22;5118;48.570;7.916;2023-07-31T06:52:08;18.50;99.90
10155;DHT22;5118;48.570;7.916;2023-07-31T06:54:38;18.60;99.90
10155;DHT22;5118;48.570;7.916;2023-07-31T06:57:06;18.70;99.90
10155;DHT22;5118;48.570;7.916;2023-07-31T06:59:35;18.80;99.90
10155;DHT22;5118;48.570;7.916;2023-07-31T07:02:04;18.90;99.90
10155;DHT22;5118;48.570;7.916;2023-07-31T07:04:33;19.00;99.90
10155;DHT22;5118;48.570;7.916;2023-07-31T07:07:02;19.00;99.90
10155;DHT22;5118;48.570;7.916;2023-07-31T07:09:32;19.10;99.90
10155;DHT22;5118;48.570;7.916;2023-07-31T07:12:00;19.10;99.90
10155;DHT22;5118;48.570;7.916;2023-07-31T07:14:28;19.10;99.90
10155;DHT22;5118;48.570;7.916;2023-07-31T07:16:57;19.20;99.90
10155;DHT22;5118;48.570;7.916;2023-07-31T07:19:25;19.20;99.90
10155;DHT22;5118;48.570;7.916;2023-07-31T07:21:53;19.40;99.90
10155;DHT22;5118;48.570;7.916;2023-07-31T07:24:23;19.50;99.90
10155;DHT22;5118;48.570;7.916;2023-07-31T07:26:52;19.60;99.90
10155;DHT22;5118;48.570;7.916;2023-07-31T07:29:21;19.70;99.90
10155;DHT22;5118;48.570;7.916;2023-07-31T07:31:49;19.70;99.90
10155;DHT22;5118;48.570;7.916;2023-07-31T07:34:18;19.80;99.90
10155;DHT22;5118;48.570;7.916;2023-07-31T07:36:46;19.80;99.90
10155;DHT22;5118;48.570;7.916;2023-07-31T07:39:15;19.70;99.90
10155;DHT22;5118;48.570;7.916;2023-07-31T07:41:43;19.70;99.90
10155;DHT22;5118;48.570;7.916;2023-07-31T07:44:14;19.70;99.90
10155;DHT22;5118;48.570;7.916;2023-07-31T07:46:42;19.80;99.90
10155;DHT22;5118;48.570;7.916;2023-07-31T07:49:11;19.80;99.90
10155;DHT22;5118;48.570;7.916;2023-07-31T07:51:41;19.90;99.90
10155;DHT22;5118;48.570;7.916;2023-07-31T07:54:10;20.00;99.90
10155;DHT22;5118;48.570;7.916;2023-07-31T07:56:38;20.20;99.90
10155;DHT22;5118;48.570;7.916;2023-07-31T07:59:08;20.40;99.90
10155;DHT22;5118;48.570;7.916;2023-07-31T08:01:38;20.50;99.90
10155;DHT22;5118;48.570;7.916;2023-07-31T08:04:06;20.60;99.90
10155;DHT22;5118;48.570;7.916;2023-07-31T08:06:35;20.70;99.90
10155;DHT22;5118;48.570;7.916;2023-07-31T08:09:04;20.90;99.90
10155;DHT22;5118;48.570;7.916;2023-07-31T08:11:33;21.00;99.90
10155;DHT22;5118;48.570;7.916;2023-07-31T08:14:02;21.20;99.90
10155;DHT22;5118;48.570;7.916;2023-07-31T08:16:30;21.30;99.90
10155;DHT22;5118;48.570;7.916;2023-07-31T08:19:00;21.30;99.90
10155;DHT22;5118;48.570;7.916;2023-07-31T08:21:31;21.40;99.90
10155;DHT22;5118;48.570;7.916;2023-07-31T08:24:00;21.40;99.90
10155;DHT22;5118;48.570;7.916;2023-07-31T08:26:29;21.50;99.90
10155;DHT22;5118;48.570;7.916;2023-07-31T08:28:58;21.50;99.90
10155;DHT22;5118;48.570;7.916;2023-07-31T08:31:26;21.50;99.90
10155;DHT22;5118;48.570;7.916;2023-07-31T08:33:56;21.60;99.90
10155;DHT22;5118;48.570;7.916;2023-07-31T08:36:26;21.70;99.90
10155;DHT22;5118;48.570;7.916;2023-07-31T08:38:56;21.80;99.90
10155;DHT22;5118;48.570;7.916;2023-07-31T08:41:25;21.80;99.90
10155;DHT22;5118;48.570;7.916;2023-07-31T08:43:55;21.90;99.90
10155;DHT22;5118;48.570;7.916;2023-07-31T08:46:25;22.00;99.90
10155;DHT22;5118;48.570;7.916;2023-07-31T08:48:54;21.90;99.90
10155;DHT22;5118;48.570;7.916;2023-07-31T08:51:27;21.80;99.90
10155;DHT22;5118;48.570;7.916;2023-07-31T08:53:55;21.70;99.90
10155;DHT22;5118;48.570;7.916;2023-07-31T08:56:25;21.60;99.90
10155;DHT22;5118;48.570;7.916;2023-07-31T08:58:54;21.50;99.90
10155;DHT22;5118;48.570;7.916;2023-07-31T09:01:23;21.40;99.90
10155;DHT22;5118;48.570;7.916;2023-07-31T09:03:52;21.40;99.90
10155;DHT22;5118;48.570;7.916;2023-07-31T09:06:23;21.40;99.90
10155;DHT22;5118;48.570;7.916;2023-07-31T09:08:54;21.40;99.90
10155;DHT22;5118;48.570;7.916;2023-07-31T09:11:24;21.50;99.90
10155;DHT22;5118;48.570;7.916;2023-07-31T09:13:52;21.50;99.90
10155;DHT22;5118;48.570;7.916;2023-07-31T09:16:27;21.70;99.90
10155;DHT22;5118;48.570;7.916;2023-07-31T09:18:57;21.90;99.90
10155;DHT22;5118;48.570;7.916;2023-07-31T09:21:29;22.10;99.90
10155;DHT22;5118;48.570;7.916;2023-07-31T09:23:58;22.30;99.90
10155;DHT22;5118;48.570;7.916;2023-07-31T09:26:31;22.60;99.90
10155;DHT22;5118;48.570;7.916;2023-07-31T09:29:00;22.80;99.90
10155;DHT22;5118;48.570;7.916;2023-07-31T09:31:32;23.00;99.90
10155;DHT22;5118;48.570;7.916;2023-07-31T09:34:01;23.20;99.90
10155;DHT22;5118;48.570;7.916;2023-07-31T09:36:30;23.50;99.90
10155;DHT22;5118;48.570;7.916;2023-07-31T09:39:03;23.60;99.90
10155;DHT22;5118;48.570;7.916;2023-07-31T09:41:31;23.60;99.90
10155;DHT22;5118;48.570;7.916;2023-07-31T09:44:04;23.80;99.90
10155;DHT22;5118;48.570;7.916;2023-07-31T09:46:35;23.80;99.90
10155;DHT22;5118;48.570;7.916;2023-07-31T09:49:06;23.80;99.90
10155;DHT22;5118;48.570;7.916;2023-07-31T09:51:37;23.90;99.90
10155;DHT22;5118;48.570;7.916;2023-07-31T09:54:11;24.00;99.90
10155;DHT22;5118;48.570;7.916;2023-07-31T09:56:42;24.00;99.90
10155;DHT22;5118;48.570;7.916;2023-07-31T09:59:12;24.00;99.90
10155;DHT22;5118;48.570;7.916;2023-07-31T10:01:42;24.00;99.90
10155;DHT22;5118;48.570;7.916;2023-07-31T10:04:11;24.10;99.90
10155;DHT22;5118;48.570;7.916;2023-07-31T10:06:40;24.10;99.90
10155;DHT22;5118;48.570;7.916;2023-07-31T10:09:12;24.00;99.90
10155;DHT22;5118;48.570;7.916;2023-07-31T10:11:47;23.90;99.90
10155;DHT22;5118;48.570;7.916;2023-07-31T10:14:20;24.00;99.90
10155;DHT22;5118;48.570;7.916;2023-07-31T10:16:49;24.10;99.90
10155;DHT22;5118;48.570;7.916;2023-07-31T10:19:19;23.90;99.90
10155;DHT22;5118;48.570;7.916;2023-07-31T10:21:48;23.70;99.90
10155;DHT22;5118;48.570;7.916;2023-07-31T10:24:18;23.60;99.90
10155;DHT22;5118;48.570;7.916;2023-07-31T10:26:48;23.50;99.90
10155;DHT22;5118;48.570;7.916;2023-07-31T10:29:17;23.40;99.90
10155;DHT22;5118;48.570;7.916;2023-07-31T10:31:47;23.10;99.90
10155;DHT22;5118;48.570;7.916;2023-07-31T10:34:16;22.90;99.90
10155;DHT22;5118;48.570;7.916;2023-07-31T10:36:44;22.90;99.90
10155;DHT22;5118;48.570;7.916;2023-07-31T10:39:36;22.90;99.90
10155;DHT22;5118;48.570;7.916;2023-07-31T10:42:12;23.00;99.90
10155;DHT22;5118;48.570;7.916;2023-07-31T10:44:44;23.10;99.90
10155;DHT22;5118;48.570;7.916;2023-07-31T10:47:14;23.10;99.90
10155;DHT22;5118;48.570;7.916;2023-07-31T10:49:45;23.10;99.90
10155;DHT22;5118;48.570;7.916;2023-07-31T10:52:15;23.10;99.90
10155;DHT22;5118;48.570;7.916;2023-07-31T10:55:14;23.10;99.90
10155;DHT22;5118;48.570;7.916;2023-07-31T10:57:44;22.90;99.90
10155;DHT22;5118;48.570;7.916;2023-07-31T11:00:22;22.90;99.90
10155;DHT22;5118;48.570;7.916;2023-07-31T11:02:58;22.90;99.90
10155;DHT22;5118;48.570;7.916;2023-07-31T11:05:51;23.10;99.90
10155;DHT22;5118;48.570;7.916;2023-07-31T11:08:23;23.50;99.90
10155;DHT22;5118;48.570;7.916;2023-07-31T11:11:05;23.80;99.90
10155;DHT22;5118;48.570;7.916;2023-07-31T11:13:41;24.10;99.90
10155;DHT22;5118;48.570;7.916;2023-07-31T11:16:10;24.40;99.90
10155;DHT22;5118;48.570;7.916;2023-07-31T11:18:40;24.60;99.90
10155;DHT22;5118;48.570;7.916;2023-07-31T11:21:12;24.90;99.90
10155;DHT22;5118;48.570;7.916;2023-07-31T11:23:41;25.40;99.90
10155;DHT22;5118;48.570;7.916;2023-07-31T11:26:15;26.20;99.90
10155;DHT22;5118;48.570;7.916;2023-07-31T11:28:47;27.00;99.70
10155;DHT22;5118;48.570;7.916;2023-07-31T11:31:16;27.50;98.10
10155;DHT22;5118;48.570;7.916;2023-07-31T11:33:45;28.10;96.90
10155;DHT22;5118;48.570;7.916;2023-07-31T11:36:18;28.50;95.30
10155;DHT22;5118;48.570;7.916;2023-07-31T11:38:46;29.00;93.00
10155;DHT22;5118;48.570;7.916;2023-07-31T11:41:17;29.40;91.80
10155;DHT22;5118;48.570;7.916;2023-07-31T11:43:46;29.90;88.30
10155;DHT22;5118;48.570;7.916;2023-07-31T11:46:14;29.90;84.20
10155;DHT22;5118;48.570;7.916;2023-07-31T11:48:43;29.80;80.00
10155;DHT22;5118;48.570;7.916;2023-07-31T11:51:13;29.50;78.80
10155;DHT22;5118;48.570;7.916;2023-07-31T11:53:43;29.00;77.80
10155;DHT22;5118;48.570;7.916;2023-07-31T11:56:14;28.70;77.90
10155;DHT22;5118;48.570;7.916;2023-07-31T11:58:46;28.70;78.30
10155;DHT22;5118;48.570;7.916;2023-07-31T12:01:17;29.00;79.00
10155;DHT22;5118;48.570;7.916;2023-07-31T12:03:48;29.30;74.30
10155;DHT22;5118;48.570;7.916;2023-07-31T12:06:17;29.60;74.10
10155;DHT22;5118;48.570;7.916;2023-07-31T12:08:47;29.70;72.70
10155;DHT22;5118;48.570;7.916;2023-07-31T12:11:16;29.90;69.60
10155;DHT22;5118;48.570;7.916;2023-07-31T12:13:46;29.70;67.40
10155;DHT22;5118;48.570;7.916;2023-07-31T12:16:14;29.60;68.10
10155;DHT22;5118;48.570;7.916;2023-07-31T12:18:43;29.70;67.80
10155;DHT22;5118;48.570;7.916;2023-07-31T12:21:11;29.80;65.90
10155;DHT22;5118;48.570;7.916;2023-07-31T12:23:40;29.60;64.60
10155;DHT22;5118;48.570;7.916;2023-07-31T12:26:11;29.40;65.10
10155;DHT22;5118;48.570;7.916;2023-07-31T12:28:41;29.40;64.40
10155;DHT22;5118;48.570;7.916;2023-07-31T12:31:12;29.30;63.60
10155;DHT22;5118;48.570;7.916;2023-07-31T12:33:41;29.00;63.60
10155;DHT22;5118;48.570;7.916;2023-07-31T12:36:14;28.90;64.20
10155;DHT22;5118;48.570;7.916;2023-07-31T12:38:43;28.80;65.30
10155;DHT22;5118;48.570;7.916;2023-07-31T12:41:12;28.70;64.20
10155;DHT22;5118;48.570;7.916;2023-07-31T12:43:42;28.50;65.40
10155;DHT22;5118;48.570;7.916;2023-07-31T12:46:12;28.30;66.30
10155;DHT22;5118;48.570;7.916;2023-07-31T12:48:42;28.20;67.70
10155;DHT22;5118;48.570;7.916;2023-07-31T12:51:12;27.90;66.80
10155;DHT22;5118;48.570;7.916;2023-07-31T12:53:40;27.60;68.10
10155;DHT22;5118;48.570;7.916;2023-07-31T12:56:09;27.50;68.50
10155;DHT22;5118;48.570;7.916;2023-07-31T12:58:38;27.40;68.50
10155;DHT22;5118;48.570;7.916;2023-07-31T13:01:06;27.20;68.80
10155;DHT22;5118;48.570;7.916;2023-07-31T13:03:36;27.00;69.10
10155;DHT22;5118;48.570;7.916;2023-07-31T13:06:05;26.80;70.60
10155;DHT22;5118;48.570;7.916;2023-07-31T13:08:33;26.70;71.50
10155;DHT22;5118;48.570;7.916;2023-07-31T13:11:02;26.60;72.80
10155;DHT22;5118;48.570;7.916;2023-07-31T13:13:30;26.70;73.90
10155;DHT22;5118;48.570;7.916;2023-07-31T13:15:59;26.80;72.70
10155;DHT22;5118;48.570;7.916;2023-07-31T13:18:27;27.20;73.60
10155;DHT22;5118;48.570;7.916;2023-07-31T13:20:57;27.50;73.70
10155;DHT22;5118;48.570;7.916;2023-07-31T13:23:25;27.80;72.90
10155;DHT22;5118;48.570;7.916;2023-07-31T13:25:54;28.00;70.60
10155;DHT22;5118;48.570;7.916;2023-07-31T13:28:22;28.00;69.20
10155;DHT22;5118;48.570;7.916;2023-07-31T13:30:53;27.80;68.70
10155;DHT22;5118;48.570;7.916;2023-07-31T13:33:22;27.70;68.70
10155;DHT22;5118;48.570;7.916;2023-07-31T13:36:04;27.70;69.50
10155;DHT22;5118;48.570;7.916;2023-07-31T13:38:32;28.10;69.60
10155;DHT22;5118;48.570;7.916;2023-07-31T13:41:01;28.60;69.20
10155;DHT22;5118;48.570;7.916;2023-07-31T13:43:29;29.10;69.50
10155;DHT22;5118;48.570;7.916;2023-07-31T13:45:58;29.80;66.60
10155;DHT22;5118;48.570;7.916;2023-07-31T13:48:31;30.40;63.40
10155;DHT22;5118;48.570;7.916;2023-07-31T13:50:59;30.90;61.10
10155;DHT22;5118;48.570;7.916;2023-07-31T13:53:29;31.20;59.00
10155;DHT22;5118;48.570;7.916;2023-07-31T13:55:57;31.20;56.90
10155;DHT22;5118;48.570;7.916;2023-07-31T13:58:25;31.00;55.60
10155;DHT22;5118;48.570;7.916;2023-07-31T14:00:54;30.50;55.70
10155;DHT22;5118;48.570;7.916;2023-07-31T14:03:22;30.00;55.50
10155;DHT22;5118;48.570;7.916;2023-07-31T14:05:52;29.30;56.30
10155;DHT22;5118;48.570;7.916;2023-07-31T14:08:22;28.70;57.80
10155;DHT22;5118;48.570;7.916;2023-07-31T14:10:52;28.30;59.10
10155;DHT22;5118;48.570;7.916;2023-07-31T14:13:21;27.90;60.70
10155;DHT22;5118;48.570;7.916;2023-07-31T14:15:49;27.60;61.50
10155;DHT22;5118;48.570;7.916;2023-07-31T14:18:18;27.40;62.80
10155;DHT22;5118;48.570;7.916;2023-07-31T14:20:48;27.20;64.30
10155;DHT22;5118;48.570;7.916;2023-07-31T14:23:16;27.00;65.20
10155;DHT22;5118;48.570;7.916;2023-07-31T14:25:46;26.90;65.10
10155;DHT22;5118;48.570;7.916;2023-07-31T14:28:16;26.70;65.70
10155;DHT22;5118;48.570;7.916;2023-07-31T14:30:45;26.60;67.20
10155;DHT22;5118;48.570;7.916;2023-07-31T14:33:14;26.50;67.40
10155;DHT22;5118;48.570;7.916;2023-07-31T14:35:42;26.30;68.10
10155;DHT22;5118;48.570;7.916;2023-07-31T14:38:11;26.30;69.60
10155;DHT22;5118;48.570;7.916;2023-07-31T14:40:41;26.40;69.70
10155;DHT22;5118;48.570;7.916;2023-07-31T14:43:10;26.50;70.10
10155;DHT22;5118;48.570;7.916;2023-07-31T14:45:39;26.80;70.50
10155;DHT22;5118;48.570;7.916;2023-07-31T14:48:08;27.00;71.20
10155;DHT22;5118;48.570;7.916;2023-07-31T14:50:37;27.40;69.50
10155;DHT22;5118;48.570;7.916;2023-07-31T14:53:05;27.60;68.40
10155;DHT22;5118;48.570;7.916;2023-07-31T14:55:34;27.70;67.80
10155;DHT22;5118;48.570;7.916;2023-07-31T14:58:02;27.60;67.50
10155;DHT22;5118;48.570;7.916;2023-07-31T15:00:31;27.60;67.50
10155;DHT22;5118;48.570;7.916;2023-07-31T15:03:02;27.40;66.70
10155;DHT22;5118;48.570;7.916;2023-07-31T15:05:31;27.30;66.80
10155;DHT22;5118;48.570;7.916;2023-07-31T15:07:59;27.20;67.00
10155;DHT22;5118;48.570;7.916;2023-07-31T15:10:27;27.30;67.20
10155;DHT22;5118;48.570;7.916;2023-07-31T15:12:56;27.60;66.70
10155;DHT22;5118;48.570;7.916;2023-07-31T15:15:24;28.10;66.00
10155;DHT22;5118;48.570;7.916;2023-07-31T15:17:53;28.70;64.20
10155;DHT22;5118;48.570;7.916;2023-07-31T15:20:24;29.20;62.40
10155;DHT22;5118;48.570;7.916;2023-07-31T15:22:52;29.30;60.10
10155;DHT22;5118;48.570;7.916;2023-07-31T15:25:21;29.20;59.50
10155;DHT22;5118;48.570;7.916;2023-07-31T15:27:49;29.00;60.10
10155;DHT22;5118;48.570;7.916;2023-07-31T15:30:17;29.00;60.40
10155;DHT22;5118;48.570;7.916;2023-07-31T15:32:46;29.20;59.30
10155;DHT22;5118;48.570;7.916;2023-07-31T15:35:17;29.10;58.60
10155;DHT22;5118;48.570;7.916;2023-07-31T15:37:50;28.80;58.20
10155;DHT22;5118;48.570;7.916;2023-07-31T15:40:18;28.50;58.40
10155;DHT22;5118;48.570;7.916;2023-07-31T15:42:46;27.90;59.10
10155;DHT22;5118;48.570;7.916;2023-07-31T15:45:15;27.40;59.90
10155;DHT22;5118;48.570;7.916;2023-07-31T15:47:43;27.10;61.00
10155;DHT22;5118;48.570;7.916;2023-07-31T15:50:12;26.80;61.60
10155;DHT22;5118;48.570;7.916;2023-07-31T15:52:40;26.50;62.30
10155;DHT22;5118;48.570;7.916;2023-07-31T15:55:10;26.30;63.40
10155;DHT22;5118;48.570;7.916;2023-07-31T15:57:39;26.20;64.50
10155;DHT22;5118;48.570;7.916;2023-07-31T16:00:08;26.00;65.80